sensor_id;sensor_type;location;lat;lon;timestamp;P1;durP1;ratioP1;P2;durP2;ratioP2
56373;SDS011;58212;47.034;7.376;2022-12-18T00:00:44;35.65;;;22.10;;
56373;SDS011;58212;47.034;7.376;2022-12-18T00:03:14;33.58;;;22.63;;
56373;SDS011;58212;47.034;7.376;2022-12-18T00:05:47;34.50;;;21.85;;
56373;SDS011;58212;47.034;7.376;2022-12-18T00:08:15;35.58;;;22.20;;
56373;SDS011;58212;47.034;7.376;2022-12-18T00:10:43;31.90;;;21.15;;
56373;SDS011;58212;47.034;7.376;2022-12-18T00:13:12;33.13;;;22.15;;
56373;SDS011;58212;47.034;7.376;2022-12-18T00:15:40;31.20;;;21.38;;
56373;SDS011;58212;47.034;7.376;2022-12-18T00:18:07;33.00;;;22.08;;
56373;SDS011;58212;47.034;7.376;2022-12-18T00:20:39;32.70;;;21.73;;
56373;SDS011;58212;47.034;7.376;2022-12-18T00:23:06;30.60;;;21.17;;
56373;SDS011;58212;47.034;7.376;2022-12-18T00:25:33;31.55;;;21.05;;
56373;SDS011;58212;47.034;7.376;2022-12-18T00:28:03;29.48;;;20.23;;
56373;SDS011;58212;47.034;7.376;2022-12-18T00:30:30;33.17;;;22.90;;
56373;SDS011;58212;47.034;7.376;2022-12-18T00:32:57;34.80;;;23.13;;
56373;SDS011;58212;47.034;7.376;2022-12-18T00:35:24;33.83;;;21.90;;
56373;SDS011;58212;47.034;7.376;2022-12-18T00:37:53;35.10;;;22.65;;
56373;SDS011;58212;47.034;7.376;2022-12-18T00:40:22;34.10;;;23.00;;
56373;SDS011;58212;47.034;7.376;2022-12-18T00:42:52;31.98;;;22.20;;
56373;SDS011;58212;47.034;7.376;2022-12-18T00:45:21;36.03;;;22.45;;
56373;SDS011;58212;47.034;7.376;2022-12-18T00:47:49;34.45;;;21.80;;
56373;SDS011;58212;47.034;7.376;2022-12-18T00:50:16;33.25;;;21.92;;
56373;SDS011;58212;47.034;7.376;2022-12-18T00:52:43;33.47;;;22.35;;
56373;SDS011;58212;47.034;7.376;2022-12-18T00:55:12;31.70;;;22.08;;
56373;SDS011;58212;47.034;7.376;2022-12-18T00:57:39;31.63;;;21.98;;
56373;SDS011;58212;47.034;7.376;2022-12-18T01:00:08;31.40;;;21.65;;
56373;SDS011;58212;47.034;7.376;2022-12-18T01:02:37;35.65;;;23.10;;
56373;SDS011;58212;47.034;7.376;2022-12-18T01:05:06;31.17;;;21.23;;
56373;SDS011;58212;47.034;7.376;2022-12-18T01:07:34;32.15;;;21.63;;
56373;SDS011;58212;47.034;7.376;2022-12-18T01:10:02;33.58;;;22.25;;
56373;SDS011;58212;47.034;7.376;2022-12-18T01:12:32;32.97;;;22.30;;
56373;SDS011;58212;47.034;7.376;2022-12-18T01:14:59;34.80;;;22.65;;
56373;SDS011;58212;47.034;7.376;2022-12-18T01:17:26;33.55;;;22.40;;
56373;SDS011;58212;47.034;7.376;2022-12-18T01:19:53;34.80;;;22.90;;
56373;SDS011;58212;47.034;7.376;2022-12-18T01:22:20;37.03;;;23.60;;
56373;SDS011;58212;47.034;7.376;2022-12-18T01:24:47;33.88;;;22.73;;
56373;SDS011;58212;47.034;7.376;2022-12-18T01:27:14;34.20;;;22.80;;
56373;SDS011;58212;47.034;7.376;2022-12-18T01:29:42;34.63;;;22.88;;
56373;SDS011;58212;47.034;7.376;2022-12-18T01:32:09;35.40;;;22.48;;
56373;SDS011;58212;47.034;7.376;2022-12-18T01:34:36;33.28;;;23.02;;
56373;SDS011;58212;47.034;7.376;2022-12-18T01:37:04;32.72;;;22.05;;
56373;SDS011;58212;47.034;7.376;2022-12-18T01:39:31;32.25;;;21.70;;
56373;SDS011;58212;47.034;7.376;2022-12-18T01:41:59;33.10;;;22.55;;
56373;SDS011;58212;47.034;7.376;2022-12-18T01:47:33;32.33;;;21.55;;
56373;SDS011;58212;47.034;7.376;2022-12-18T01:50:08;31.30;;;21.13;;
56373;SDS011;58212;47.034;7.376;2022-12-18T01:52:37;32.60;;;21.30;;
56373;SDS011;58212;47.034;7.376;2022-12-18T01:55:05;31.77;;;21.40;;
56373;SDS011;58212;47.034;7.376;2022-12-18T01:57:34;32.30;;;21.13;;
56373;SDS011;58212;47.034;7.376;2022-12-18T02:00:07;36.08;;;23.08;;
56373;SDS011;58212;47.034;7.376;2022-12-18T02:02:38;34.22;;;22.52;;
56373;SDS011;58212;47.034;7.376;2022-12-18T02:05:07;35.50;;;23.17;;
56373;SDS011;58212;47.034;7.376;2022-12-18T02:07:38;34.20;;;22.02;;
56373;SDS011;58212;47.034;7.376;2022-12-18T02:10:15;33.53;;;22.05;;
56373;SDS011;58212;47.034;7.376;2022-12-18T02:12:48;34.05;;;22.00;;
56373;SDS011;58212;47.034;7.376;2022-12-18T02:15:23;38.80;;;24.77;;
56373;SDS011;58212;47.034;7.376;2022-12-18T02:17:54;34.92;;;23.02;;
56373;SDS011;58212;47.034;7.376;2022-12-18T02:20:27;34.40;;;22.98;;
56373;SDS011;58212;47.034;7.376;2022-12-18T02:23:02;37.08;;;23.88;;
56373;SDS011;58212;47.034;7.376;2022-12-18T02:25:41;36.30;;;23.60;;
56373;SDS011;58212;47.034;7.376;2022-12-18T02:28:34;35.67;;;23.40;;
56373;SDS011;58212;47.034;7.376;2022-12-18T02:31:10;37.90;;;23.83;;
56373;SDS011;58212;47.034;7.376;2022-12-18T02:33:41;34.97;;;22.75;;
56373;SDS011;58212;47.034;7.376;2022-12-18T02:36:13;31.77;;;21.90;;
56373;SDS011;58212;47.034;7.376;2022-12-18T02:38:43;36.03;;;23.17;;
56373;SDS011;58212;47.034;7.376;2022-12-18T02:41:17;35.53;;;22.58;;
56373;SDS011;58212;47.034;7.376;2022-12-18T02:43:48;33.47;;;22.23;;
56373;SDS011;58212;47.034;7.376;2022-12-18T02:46:29;35.65;;;23.73;;
56373;SDS011;58212;47.034;7.376;2022-12-18T02:49:10;30.08;;;21.80;;
56373;SDS011;58212;47.034;7.376;2022-12-18T02:51:50;32.88;;;22.20;;
56373;SDS011;58212;47.034;7.376;2022-12-18T02:54:23;34.65;;;23.10;;
56373;SDS011;58212;47.034;7.376;2022-12-18T02:57:03;34.70;;;22.05;;
56373;SDS011;58212;47.034;7.376;2022-12-18T02:59:39;33.13;;;21.27;;
56373;SDS011;58212;47.034;7.376;2022-12-18T03:02:16;34.22;;;22.55;;
56373;SDS011;58212;47.034;7.376;2022-12-18T03:04:47;32.97;;;21.67;;
56373;SDS011;58212;47.034;7.376;2022-12-18T03:07:21;36.90;;;23.52;;
56373;SDS011;58212;47.034;7.376;2022-12-18T03:09:55;36.15;;;22.20;;
56373;SDS011;58212;47.034;7.376;2022-12-18T03:12:28;31.48;;;21.45;;
56373;SDS011;58212;47.034;7.376;2022-12-18T03:14:59;33.22;;;20.75;;
56373;SDS011;58212;47.034;7.376;2022-12-18T03:17:34;34.85;;;21.77;;
56373;SDS011;58212;47.034;7.376;2022-12-18T03:20:04;32.47;;;22.30;;
56373;SDS011;58212;47.034;7.376;2022-12-18T03:22:34;33.42;;;21.65;;
56373;SDS011;58212;47.034;7.376;2022-12-18T03:25:05;32.88;;;21.52;;
56373;SDS011;58212;47.034;7.376;2022-12-18T03:27:40;33.70;;;21.70;;
56373;SDS011;58212;47.034;7.376;2022-12-18T03:30:13;31.92;;;21.23;;
56373;SDS011;58212;47.034;7.376;2022-12-18T03:32:44;31.27;;;20.33;;
56373;SDS011;58212;47.034;7.376;2022-12-18T03:35:16;30.77;;;21.00;;
56373;SDS011;58212;47.034;7.376;2022-12-18T03:37:48;31.42;;;21.00;;
56373;SDS011;58212;47.034;7.376;2022-12-18T03:40:15;31.10;;;20.77;;
56373;SDS011;58212;47.034;7.376;2022-12-18T03:42:45;32.38;;;21.30;;
56373;SDS011;58212;47.034;7.376;2022-12-18T03:45:19;31.95;;;20.27;;
56373;SDS011;58212;47.034;7.376;2022-12-18T03:47:53;33.03;;;21.38;;
56373;SDS011;58212;47.034;7.376;2022-12-18T03:50:34;30.77;;;20.33;;
56373;SDS011;58212;47.034;7.376;2022-12-18T03:53:10;34.13;;;21.50;;
56373;SDS011;58212;47.034;7.376;2022-12-18T03:55:47;34.08;;;20.92;;
56373;SDS011;58212;47.034;7.376;2022-12-18T03:58:18;31.35;;;20.88;;
56373;SDS011;58212;47.034;7.376;2022-12-18T04:00:55;32.00;;;21.50;;
56373;SDS011;58212;47.034;7.376;2022-12-18T04:03:25;32.90;;;21.55;;
56373;SDS011;58212;47.034;7.376;2022-12-18T04:05:56;33.88;;;21.90;;
56373;SDS011;58212;47.034;7.376;2022-12-18T04:08:27;34.85;;;21.52;;
56373;SDS011;58212;47.034;7.376;2022-12-18T04:11:04;34.45;;;22.77;;
56373;SDS011;58212;47.034;7.376;2022-12-18T04:13:34;35.45;;;21.65;;
56373;SDS011;58212;47.034;7.376;2022-12-18T04:16:07;35.72;;;22.08;;
56373;SDS011;58212;47.034;7.376;2022-12-18T04:18:37;33.72;;;20.67;;
56373;SDS011;58212;47.034;7.376;2022-12-18T04:21:04;34.75;;;21.60;;
56373;SDS011;58212;47.034;7.376;2022-12-18T04:23:32;33.25;;;21.42;;
56373;SDS011;58212;47.034;7.376;2022-12-18T04:26:00;32.28;;;20.58;;
56373;SDS011;58212;47.034;7.376;2022-12-18T04:28:51;32.55;;;20.98;;
56373;SDS011;58212;47.034;7.376;2022-12-18T04:31:19;33.78;;;22.08;;
56373;SDS011;58212;47.034;7.376;2022-12-18T04:33:46;32.88;;;22.05;;
56373;SDS011;58212;47.034;7.376;2022-12-18T04:36:14;32.65;;;21.83;;
56373;SDS011;58212;47.034;7.376;2022-12-18T04:38:42;31.50;;;21.38;;
56373;SDS011;58212;47.034;7.376;2022-12-18T04:41:12;35.10;;;22.60;;
56373;SDS011;58212;47.034;7.376;2022-12-18T04:43:44;33.13;;;21.17;;
56373;SDS011;58212;47.034;7.376;2022-12-18T04:46:12;32.85;;;21.17;;
56373;SDS011;58212;47.034;7.376;2022-12-18T04:48:40;29.67;;;20.77;;
56373;SDS011;58212;47.034;7.376;2022-12-18T04:51:07;32.72;;;21.80;;
56373;SDS011;58212;47.034;7.376;2022-12-18T04:53:34;30.90;;;21.45;;
56373;SDS011;58212;47.034;7.376;2022-12-18T04:56:04;30.27;;;21.80;;
56373;SDS011;58212;47.034;7.376;2022-12-18T04:58:33;30.85;;;20.75;;
56373;SDS011;58212;47.034;7.376;2022-12-18T05:01:00;31.88;;;21.55;;
56373;SDS011;58212;47.034;7.376;2022-12-18T05:03:29;31.92;;;21.33;;
56373;SDS011;58212;47.034;7.376;2022-12-18T05:05:57;30.50;;;20.95;;
56373;SDS011;58212;47.034;7.376;2022-12-18T05:08:24;28.85;;;20.52;;
56373;SDS011;58212;47.034;7.376;2022-12-18T05:10:57;30.73;;;20.90;;
56373;SDS011;58212;47.034;7.376;2022-12-18T05:13:25;30.50;;;19.70;;
56373;SDS011;58212;47.034;7.376;2022-12-18T05:15:52;30.08;;;20.05;;
56373;SDS011;58212;47.034;7.376;2022-12-18T05:18:19;30.63;;;19.85;;
56373;SDS011;58212;47.034;7.376;2022-12-18T05:20:48;26.92;;;19.70;;
56373;SDS011;58212;47.034;7.376;2022-12-18T05:23:15;30.33;;;20.58;;
56373;SDS011;58212;47.034;7.376;2022-12-18T05:25:46;29.55;;;20.02;;
56373;SDS011;58212;47.034;7.376;2022-12-18T05:28:16;28.70;;;19.83;;
56373;SDS011;58212;47.034;7.376;2022-12-18T05:30:46;32.03;;;20.50;;
56373;SDS011;58212;47.034;7.376;2022-12-18T05:33:14;27.73;;;18.75;;
56373;SDS011;58212;47.034;7.376;2022-12-18T05:35:44;30.30;;;19.70;;
56373;SDS011;58212;47.034;7.376;2022-12-18T05:38:12;29.27;;;19.30;;
56373;SDS011;58212;47.034;7.376;2022-12-18T05:40:41;27.75;;;18.73;;
56373;SDS011;58212;47.034;7.376;2022-12-18T05:43:08;28.58;;;19.20;;
56373;SDS011;58212;47.034;7.376;2022-12-18T05:45:36;28.63;;;19.55;;
56373;SDS011;58212;47.034;7.376;2022-12-18T05:48:03;31.00;;;19.92;;
56373;SDS011;58212;47.034;7.376;2022-12-18T05:50:33;26.40;;;18.23;;
56373;SDS011;58212;47.034;7.376;2022-12-18T05:53:00;27.70;;;17.63;;
56373;SDS011;58212;47.034;7.376;2022-12-18T05:55:29;29.52;;;18.75;;
56373;SDS011;58212;47.034;7.376;2022-12-18T05:57:59;30.55;;;19.15;;
56373;SDS011;58212;47.034;7.376;2022-12-18T06:00:26;25.92;;;19.02;;
56373;SDS011;58212;47.034;7.376;2022-12-18T06:02:53;23.75;;;17.25;;
56373;SDS011;58212;47.034;7.376;2022-12-18T06:05:21;26.63;;;17.58;;
56373;SDS011;58212;47.034;7.376;2022-12-18T06:07:48;24.70;;;17.55;;
56373;SDS011;58212;47.034;7.376;2022-12-18T06:10:15;25.67;;;17.27;;
56373;SDS011;58212;47.034;7.376;2022-12-18T06:12:43;26.38;;;18.50;;
56373;SDS011;58212;47.034;7.376;2022-12-18T06:15:10;27.00;;;17.55;;
56373;SDS011;58212;47.034;7.376;2022-12-18T06:17:37;24.27;;;16.90;;
56373;SDS011;58212;47.034;7.376;2022-12-18T06:20:05;26.02;;;17.77;;
56373;SDS011;58212;47.034;7.376;2022-12-18T06:22:33;22.55;;;15.95;;
56373;SDS011;58212;47.034;7.376;2022-12-18T06:25:01;25.08;;;16.40;;
56373;SDS011;58212;47.034;7.376;2022-12-18T06:27:28;23.60;;;16.25;;
56373;SDS011;58212;47.034;7.376;2022-12-18T06:29:56;23.88;;;16.63;;
56373;SDS011;58212;47.034;7.376;2022-12-18T06:32:23;22.13;;;16.13;;
56373;SDS011;58212;47.034;7.376;2022-12-18T06:34:50;24.92;;;16.67;;
56373;SDS011;58212;47.034;7.376;2022-12-18T06:37:18;24.08;;;16.70;;
56373;SDS011;58212;47.034;7.376;2022-12-18T06:39:45;25.23;;;16.33;;
56373;SDS011;58212;47.034;7.376;2022-12-18T06:42:12;25.38;;;17.20;;
56373;SDS011;58212;47.034;7.376;2022-12-18T06:44:40;24.88;;;17.95;;
56373;SDS011;58212;47.034;7.376;2022-12-18T06:47:08;25.35;;;16.50;;
56373;SDS011;58212;47.034;7.376;2022-12-18T06:49:35;25.20;;;17.33;;
56373;SDS011;58212;47.034;7.376;2022-12-18T06:52:02;24.98;;;17.92;;
56373;SDS011;58212;47.034;7.376;2022-12-18T06:54:29;27.10;;;17.70;;
56373;SDS011;58212;47.034;7.376;2022-12-18T06:56:57;28.52;;;18.83;;
56373;SDS011;58212;47.034;7.376;2022-12-18T06:59:24;25.77;;;18.17;;
56373;SDS011;58212;47.034;7.376;2022-12-18T07:01:51;28.73;;;19.40;;
56373;SDS011;58212;47.034;7.376;2022-12-18T07:04:19;26.63;;;17.15;;
56373;SDS011;58212;47.034;7.376;2022-12-18T07:06:46;24.85;;;18.13;;
56373;SDS011;58212;47.034;7.376;2022-12-18T07:09:13;25.02;;;17.70;;
56373;SDS011;58212;47.034;7.376;2022-12-18T07:11:43;23.60;;;17.40;;
56373;SDS011;58212;47.034;7.376;2022-12-18T07:14:10;26.27;;;17.50;;
56373;SDS011;58212;47.034;7.376;2022-12-18T07:16:37;24.60;;;17.05;;
56373;SDS011;58212;47.034;7.376;2022-12-18T07:19:06;25.60;;;16.98;;
56373;SDS011;58212;47.034;7.376;2022-12-18T07:21:35;25.23;;;16.55;;
56373;SDS011;58212;47.034;7.376;2022-12-18T07:24:02;25.67;;;16.80;;
56373;SDS011;58212;47.034;7.376;2022-12-18T07:26:29;25.77;;;17.52;;
56373;SDS011;58212;47.034;7.376;2022-12-18T07:28:56;22.67;;;16.38;;
56373;SDS011;58212;47.034;7.376;2022-12-18T07:31:24;25.95;;;17.75;;
56373;SDS011;58212;47.034;7.376;2022-12-18T07:33:52;24.70;;;17.20;;
56373;SDS011;58212;47.034;7.376;2022-12-18T07:36:19;23.90;;;16.92;;
56373;SDS011;58212;47.034;7.376;2022-12-18T07:38:51;26.23;;;17.90;;
56373;SDS011;58212;47.034;7.376;2022-12-18T07:41:18;25.58;;;16.55;;
56373;SDS011;58212;47.034;7.376;2022-12-18T07:43:46;24.98;;;17.13;;
56373;SDS011;58212;47.034;7.376;2022-12-18T07:46:13;25.75;;;17.55;;
56373;SDS011;58212;47.034;7.376;2022-12-18T07:48:41;25.63;;;17.75;;
56373;SDS011;58212;47.034;7.376;2022-12-18T07:51:08;25.42;;;18.40;;
56373;SDS011;58212;47.034;7.376;2022-12-18T07:53:36;24.42;;;16.67;;
56373;SDS011;58212;47.034;7.376;2022-12-18T07:56:05;26.83;;;17.70;;
56373;SDS011;58212;47.034;7.376;2022-12-18T07:58:34;27.13;;;18.67;;
56373;SDS011;58212;47.034;7.376;2022-12-18T08:01:02;25.20;;;17.40;;
56373;SDS011;58212;47.034;7.376;2022-12-18T08:03:30;26.05;;;18.10;;
56373;SDS011;58212;47.034;7.376;2022-12-18T08:05:58;27.25;;;18.33;;
56373;SDS011;58212;47.034;7.376;2022-12-18T08:08:26;23.33;;;17.63;;
56373;SDS011;58212;47.034;7.376;2022-12-18T08:10:56;25.35;;;17.58;;
56373;SDS011;58212;47.034;7.376;2022-12-18T08:13:25;23.60;;;16.58;;
56373;SDS011;58212;47.034;7.376;2022-12-18T08:15:56;23.73;;;17.40;;
56373;SDS011;58212;47.034;7.376;2022-12-18T08:18:24;23.80;;;16.85;;
56373;SDS011;58212;47.034;7.376;2022-12-18T08:20:53;25.88;;;18.60;;
56373;SDS011;58212;47.034;7.376;2022-12-18T08:23:20;24.85;;;17.75;;
56373;SDS011;58212;47.034;7.376;2022-12-18T08:25:48;24.90;;;17.60;;
56373;SDS011;58212;47.034;7.376;2022-12-18T08:28:16;25.77;;;17.67;;
56373;SDS011;58212;47.034;7.376;2022-12-18T08:30:44;24.90;;;17.77;;
56373;SDS011;58212;47.034;7.376;2022-12-18T08:33:11;25.63;;;17.25;;
56373;SDS011;58212;47.034;7.376;2022-12-18T08:35:38;23.98;;;17.15;;
56373;SDS011;58212;47.034;7.376;2022-12-18T08:38:05;21.23;;;16.50;;
56373;SDS011;58212;47.034;7.376;2022-12-18T08:40:35;22.73;;;16.17;;
56373;SDS011;58212;47.034;7.376;2022-12-18T08:43:02;22.75;;;16.10;;
56373;SDS011;58212;47.034;7.376;2022-12-18T08:45:47;22.83;;;16.88;;
56373;SDS011;58212;47.034;7.376;2022-12-18T08:48:14;22.60;;;16.52;;
56373;SDS011;58212;47.034;7.376;2022-12-18T08:50:41;21.92;;;15.98;;
56373;SDS011;58212;47.034;7.376;2022-12-18T08:53:08;22.90;;;16.48;;
56373;SDS011;58212;47.034;7.376;2022-12-18T08:55:35;22.08;;;16.33;;
56373;SDS011;58212;47.034;7.376;2022-12-18T08:58:02;18.75;;;15.00;;
56373;SDS011;58212;47.034;7.376;2022-12-18T09:00:29;23.88;;;16.08;;
56373;SDS011;58212;47.034;7.376;2022-12-18T09:02:58;22.10;;;15.90;;
56373;SDS011;58212;47.034;7.376;2022-12-18T09:05:25;22.25;;;16.48;;
56373;SDS011;58212;47.034;7.376;2022-12-18T09:07:52;24.05;;;16.88;;
56373;SDS011;58212;47.034;7.376;2022-12-18T09:10:19;22.55;;;15.77;;
56373;SDS011;58212;47.034;7.376;2022-12-18T09:12:46;21.77;;;16.25;;
56373;SDS011;58212;47.034;7.376;2022-12-18T09:15:13;24.27;;;16.80;;
56373;SDS011;58212;47.034;7.376;2022-12-18T09:17:40;22.85;;;15.40;;
56373;SDS011;58212;47.034;7.376;2022-12-18T09:20:11;20.52;;;14.88;;
56373;SDS011;58212;47.034;7.376;2022-12-18T09:22:38;23.27;;;15.90;;
56373;SDS011;58212;47.034;7.376;2022-12-18T09:25:05;22.17;;;15.45;;
56373;SDS011;58212;47.034;7.376;2022-12-18T09:27:33;21.63;;;16.10;;
56373;SDS011;58212;47.034;7.376;2022-12-18T09:30:00;22.15;;;15.30;;
56373;SDS011;58212;47.034;7.376;2022-12-18T09:32:27;20.98;;;16.08;;
56373;SDS011;58212;47.034;7.376;2022-12-18T09:34:54;20.98;;;15.32;;
56373;SDS011;58212;47.034;7.376;2022-12-18T09:37:25;21.77;;;16.00;;
56373;SDS011;58212;47.034;7.376;2022-12-18T09:39:52;21.25;;;15.77;;
56373;SDS011;58212;47.034;7.376;2022-12-18T09:42:20;24.50;;;16.65;;
56373;SDS011;58212;47.034;7.376;2022-12-18T09:44:49;22.15;;;16.02;;
56373;SDS011;58212;47.034;7.376;2022-12-18T09:47:19;23.42;;;16.75;;
56373;SDS011;58212;47.034;7.376;2022-12-18T09:49:50;22.13;;;16.63;;
56373;SDS011;58212;47.034;7.376;2022-12-18T09:52:21;24.15;;;17.30;;
56373;SDS011;58212;47.034;7.376;2022-12-18T09:54:57;23.33;;;16.52;;
56373;SDS011;58212;47.034;7.376;2022-12-18T09:57:31;29.35;;;20.75;;
56373;SDS011;58212;47.034;7.376;2022-12-18T10:00:04;23.10;;;17.02;;
56373;SDS011;58212;47.034;7.376;2022-12-18T10:02:43;33.33;;;22.80;;
56373;SDS011;58212;47.034;7.376;2022-12-18T10:05:11;27.38;;;19.17;;
56373;SDS011;58212;47.034;7.376;2022-12-18T10:07:52;23.95;;;17.25;;
56373;SDS011;58212;47.034;7.376;2022-12-18T10:10:29;23.75;;;16.42;;
56373;SDS011;58212;47.034;7.376;2022-12-18T10:13:07;22.65;;;15.73;;
56373;SDS011;58212;47.034;7.376;2022-12-18T10:15:45;23.33;;;17.55;;
56373;SDS011;58212;47.034;7.376;2022-12-18T10:18:23;24.70;;;16.65;;
56373;SDS011;58212;47.034;7.376;2022-12-18T10:20:58;20.90;;;15.98;;
56373;SDS011;58212;47.034;7.376;2022-12-18T10:23:32;21.60;;;16.10;;
56373;SDS011;58212;47.034;7.376;2022-12-18T10:26:04;20.13;;;15.65;;
56373;SDS011;58212;47.034;7.376;2022-12-18T10:28:33;21.25;;;15.63;;
56373;SDS011;58212;47.034;7.376;2022-12-18T10:31:05;21.48;;;16.38;;
56373;SDS011;58212;47.034;7.376;2022-12-18T10:33:33;22.63;;;16.27;;
56373;SDS011;58212;47.034;7.376;2022-12-18T10:36:00;21.85;;;16.52;;
56373;SDS011;58212;47.034;7.376;2022-12-18T10:38:28;23.25;;;17.30;;
56373;SDS011;58212;47.034;7.376;2022-12-18T10:40:58;22.52;;;16.67;;
56373;SDS011;58212;47.034;7.376;2022-12-18T10:43:27;22.75;;;16.92;;
56373;SDS011;58212;47.034;7.376;2022-12-18T10:50:40;20.92;;;16.67;;
56373;SDS011;58212;47.034;7.376;2022-12-18T10:53:14;23.25;;;17.42;;
56373;SDS011;58212;47.034;7.376;2022-12-18T10:55:46;24.42;;;15.90;;
56373;SDS011;58212;47.034;7.376;2022-12-18T10:58:16;22.23;;;16.15;;
56373;SDS011;58212;47.034;7.376;2022-12-18T11:01:01;23.67;;;16.88;;
56373;SDS011;58212;47.034;7.376;2022-12-18T11:03:31;22.83;;;17.65;;
56373;SDS011;58212;47.034;7.376;2022-12-18T11:06:03;22.55;;;16.75;;
56373;SDS011;58212;47.034;7.376;2022-12-18T11:08:32;22.88;;;17.55;;
56373;SDS011;58212;47.034;7.376;2022-12-18T11:11:00;27.25;;;18.30;;
56373;SDS011;58212;47.034;7.376;2022-12-18T11:13:30;23.95;;;17.88;;
56373;SDS011;58212;47.034;7.376;2022-12-18T11:15:58;23.55;;;18.00;;
56373;SDS011;58212;47.034;7.376;2022-12-18T11:18:27;20.67;;;16.88;;
56373;SDS011;58212;47.034;7.376;2022-12-18T11:20:56;24.20;;;17.05;;
56373;SDS011;58212;47.034;7.376;2022-12-18T11:23:27;24.42;;;19.00;;
56373;SDS011;58212;47.034;7.376;2022-12-18T11:25:55;24.30;;;18.20;;
56373;SDS011;58212;47.034;7.376;2022-12-18T11:28:25;22.52;;;17.85;;
56373;SDS011;58212;47.034;7.376;2022-12-18T11:33:49;23.75;;;17.15;;
56373;SDS011;58212;47.034;7.376;2022-12-18T11:36:29;22.30;;;17.42;;
56373;SDS011;58212;47.034;7.376;2022-12-18T11:39:05;21.60;;;17.05;;
56373;SDS011;58212;47.034;7.376;2022-12-18T11:41:41;21.27;;;16.60;;
56373;SDS011;58212;47.034;7.376;2022-12-18T11:44:35;22.90;;;16.73;;
56373;SDS011;58212;47.034;7.376;2022-12-18T11:47:09;22.33;;;17.33;;
56373;SDS011;58212;47.034;7.376;2022-12-18T11:49:44;24.83;;;19.17;;
56373;SDS011;58212;47.034;7.376;2022-12-18T11:52:16;21.98;;;17.38;;
56373;SDS011;58212;47.034;7.376;2022-12-18T11:54:52;25.88;;;20.80;;
56373;SDS011;58212;47.034;7.376;2022-12-18T11:57:24;25.60;;;21.58;;
56373;SDS011;58212;47.034;7.376;2022-12-18T12:00:01;23.73;;;17.83;;
56373;SDS011;58212;47.034;7.376;2022-12-18T12:02:42;29.88;;;25.15;;
56373;SDS011;58212;47.034;7.376;2022-12-18T12:05:31;23.25;;;17.92;;
56373;SDS011;58212;47.034;7.376;2022-12-18T12:08:08;23.00;;;17.17;;
56373;SDS011;58212;47.034;7.376;2022-12-18T12:10:46;20.85;;;16.58;;
56373;SDS011;58212;47.034;7.376;2022-12-18T12:13:25;22.90;;;17.27;;
56373;SDS011;58212;47.034;7.376;2022-12-18T12:16:08;22.80;;;17.38;;
56373;SDS011;58212;47.034;7.376;2022-12-18T12:18:44;22.17;;;16.33;;
56373;SDS011;58212;47.034;7.376;2022-12-18T12:21:23;22.52;;;16.55;;
56373;SDS011;58212;47.034;7.376;2022-12-18T12:23:57;24.00;;;17.88;;
56373;SDS011;58212;47.034;7.376;2022-12-18T12:26:32;22.50;;;17.02;;
56373;SDS011;58212;47.034;7.376;2022-12-18T12:29:09;21.55;;;16.75;;
56373;SDS011;58212;47.034;7.376;2022-12-18T12:31:53;23.52;;;16.95;;
56373;SDS011;58212;47.034;7.376;2022-12-18T12:34:29;20.52;;;16.00;;
56373;SDS011;58212;47.034;7.376;2022-12-18T12:37:04;24.23;;;17.63;;
56373;SDS011;58212;47.034;7.376;2022-12-18T12:39:42;23.27;;;17.23;;
56373;SDS011;58212;47.034;7.376;2022-12-18T12:42:15;20.90;;;15.77;;
56373;SDS011;58212;47.034;7.376;2022-12-18T12:45:05;21.02;;;16.63;;
56373;SDS011;58212;47.034;7.376;2022-12-18T12:47:40;23.65;;;16.73;;
56373;SDS011;58212;47.034;7.376;2022-12-18T12:50:12;22.17;;;16.55;;
56373;SDS011;58212;47.034;7.376;2022-12-18T12:52:43;22.27;;;16.42;;
56373;SDS011;58212;47.034;7.376;2022-12-18T12:55:14;22.05;;;16.83;;
56373;SDS011;58212;47.034;7.376;2022-12-18T12:57:47;23.02;;;17.00;;
56373;SDS011;58212;47.034;7.376;2022-12-18T13:00:21;23.67;;;17.00;;
56373;SDS011;58212;47.034;7.376;2022-12-18T13:02:51;21.98;;;17.15;;
56373;SDS011;58212;47.034;7.376;2022-12-18T13:05:24;21.13;;;16.17;;
56373;SDS011;58212;47.034;7.376;2022-12-18T13:07:57;21.52;;;17.30;;
56373;SDS011;58212;47.034;7.376;2022-12-18T13:10:32;22.75;;;16.50;;
56373;SDS011;58212;47.034;7.376;2022-12-18T13:13:03;23.08;;;17.48;;
56373;SDS011;58212;47.034;7.376;2022-12-18T13:15:32;24.02;;;18.52;;
56373;SDS011;58212;47.034;7.376;2022-12-18T13:18:03;23.60;;;17.05;;
56373;SDS011;58212;47.034;7.376;2022-12-18T13:20:42;23.55;;;17.73;;
56373;SDS011;58212;47.034;7.376;2022-12-18T13:28:57;22.70;;;15.68;;
56373;SDS011;58212;47.034;7.376;2022-12-18T13:34:26;23.52;;;16.52;;
56373;SDS011;58212;47.034;7.376;2022-12-18T13:36:56;23.55;;;17.38;;
56373;SDS011;58212;47.034;7.376;2022-12-18T13:39:47;24.58;;;17.27;;
56373;SDS011;58212;47.034;7.376;2022-12-18T13:45:39;21.50;;;16.33;;
56373;SDS011;58212;47.034;7.376;2022-12-18T13:48:15;23.23;;;16.85;;
56373;SDS011;58212;47.034;7.376;2022-12-18T13:50:48;20.45;;;15.52;;
56373;SDS011;58212;47.034;7.376;2022-12-18T13:53:19;22.27;;;16.33;;
56373;SDS011;58212;47.034;7.376;2022-12-18T13:55:50;21.98;;;16.83;;
56373;SDS011;58212;47.034;7.376;2022-12-18T13:58:18;22.00;;;16.00;;
56373;SDS011;58212;47.034;7.376;2022-12-18T14:00:45;20.23;;;14.88;;
56373;SDS011;58212;47.034;7.376;2022-12-18T14:03:16;19.52;;;14.45;;
56373;SDS011;58212;47.034;7.376;2022-12-18T14:05:46;18.85;;;14.52;;
56373;SDS011;58212;47.034;7.376;2022-12-18T14:08:21;18.85;;;14.68;;
56373;SDS011;58212;47.034;7.376;2022-12-18T14:10:53;19.30;;;14.50;;
56373;SDS011;58212;47.034;7.376;2022-12-18T14:13:23;18.95;;;14.30;;
56373;SDS011;58212;47.034;7.376;2022-12-18T14:16:02;20.08;;;14.65;;
56373;SDS011;58212;47.034;7.376;2022-12-18T14:18:33;17.75;;;13.82;;
56373;SDS011;58212;47.034;7.376;2022-12-18T14:21:14;18.70;;;13.88;;
56373;SDS011;58212;47.034;7.376;2022-12-18T14:23:45;17.75;;;13.93;;
56373;SDS011;58212;47.034;7.376;2022-12-18T14:26:22;17.95;;;14.13;;
56373;SDS011;58212;47.034;7.376;2022-12-18T14:28:53;17.58;;;13.65;;
56373;SDS011;58212;47.034;7.376;2022-12-18T14:31:24;18.75;;;13.88;;
56373;SDS011;58212;47.034;7.376;2022-12-18T14:33:54;18.58;;;13.35;;
56373;SDS011;58212;47.034;7.376;2022-12-18T14:36:21;17.00;;;13.45;;
56373;SDS011;58212;47.034;7.376;2022-12-18T14:38:51;18.13;;;13.02;;
56373;SDS011;58212;47.034;7.376;2022-12-18T14:41:19;18.50;;;12.93;;
56373;SDS011;58212;47.034;7.376;2022-12-18T14:43:49;17.23;;;13.00;;
56373;SDS011;58212;47.034;7.376;2022-12-18T14:46:28;18.45;;;13.52;;
56373;SDS011;58212;47.034;7.376;2022-12-18T14:48:57;17.65;;;13.15;;
56373;SDS011;58212;47.034;7.376;2022-12-18T14:51:27;16.55;;;12.48;;
56373;SDS011;58212;47.034;7.376;2022-12-18T14:53:56;15.10;;;11.23;;
56373;SDS011;58212;47.034;7.376;2022-12-18T14:56:27;13.55;;;10.43;;
56373;SDS011;58212;47.034;7.376;2022-12-18T14:58:59;13.52;;;10.23;;
56373;SDS011;58212;47.034;7.376;2022-12-18T15:01:29;12.63;;;10.43;;
56373;SDS011;58212;47.034;7.376;2022-12-18T15:03:58;13.60;;;11.00;;